Time;durP1;ratioP1;P1;durP2;ratioP2;P2;SDS_P1;SDS_P2;PMS_P1;PMS_P2;Temp;Humidity;BMP_temperature;BMP_pressure;BME280_temperature;BME280_humidity;BME280_pressure;Samples;Min_cycle;Max_cycle;Signal;HPM_P1;HPM_P2
2024/02/04 00:01:47;;;;;;;5.70;5.15;;;11.30;99.90;;;;;;5099292;28;20015;-36
2024/02/04 00:04:13;;;;;;;5.20;4.68;;;11.30;99.90;;;;;;5098950;28;20130;-32
2024/02/04 00:06:38;;;;;;;4.53;4.13;;;11.30;99.90;;;;;;5099574;28;20112;-38
2024/02/04 00:09:08;;;;;;;6.95;4.72;;;11.30;99.90;;;;;;5098671;28;20046;-35
2024/02/04 00:11:34;;;;;;;5.50;5.00;;;11.20;99.90;;;;;;5099249;28;20026;-35
2024/02/04 00:14:00;;;;;;;5.97;4.82;;;11.20;99.90;;;;;;5099286;28;20126;-36
2024/02/04 00:16:25;;;;;;;6.40;5.25;;;11.20;99.90;;;;;;5098038;28;20020;-35
2024/02/04 00:18:54;;;;;;;5.75;5.25;;;11.20;99.90;;;;;;5098751;28;20089;-37
2024/02/04 00:21:19;;;;;;;6.47;5.90;;;11.20;99.90;;;;;;5098829;28;20519;-35
2024/02/04 00:23:45;;;;;;;6.57;5.82;;;11.20;99.90;;;;;;5098986;28;20016;-39
2024/02/04 00:26:10;;;;;;;8.57;6.70;;;11.20;99.90;;;;;;5099604;28;20030;-36
2024/02/04 00:28:36;;;;;;;9.43;7.15;;;11.20;99.90;;;;;;5099042;28;20028;-36
2024/02/04 00:31:01;;;;;;;7.35;6.47;;;11.20;99.90;;;;;;5097507;28;20028;-36
2024/02/04 00:33:27;;;;;;;8.63;7.35;;;11.20;99.90;;;;;;5099014;28;20024;-35
2024/02/04 00:35:53;;;;;;;7.30;6.45;;;11.20;99.90;;;;;;5098246;28;20073;-36
2024/02/04 00:38:18;;;;;;;9.73;8.43;;;11.20;99.90;;;;;;5098119;28;20032;-36
2024/02/04 00:40:44;;;;;;;10.27;8.18;;;11.20;99.90;;;;;;5099039;28;20031;-32
2024/02/04 00:43:10;;;;;;;10.93;8.32;;;11.10;99.90;;;;;;5097971;28;20105;-32
2024/02/04 00:45:35;;;;;;;13.70;9.50;;;11.20;99.90;;;;;;5098216;28;20143;-35
2024/02/04 00:48:01;;;;;;;12.30;9.48;;;11.10;99.90;;;;;;5098795;28;20634;-34
2024/02/04 00:50:27;;;;;;;18.80;12.50;;;11.20;99.90;;;;;;5097947;28;20889;-34
2024/02/04 00:52:55;;;;;;;14.13;10.82;;;11.20;99.90;;;;;;5097912;28;20023;-34
2024/02/04 00:55:21;;;;;;;12.38;9.98;;;11.10;99.90;;;;;;5098216;28;20032;-32
2024/02/04 00:57:46;;;;;;;19.60;11.27;;;11.10;99.90;;;;;;5098231;28;20024;-34
2024/02/04 01:00:15;;;;;;;12.23;9.52;;;11.20;99.90;;;;;;5098192;28;20027;-35
2024/02/04 01:02:41;;;;;;;13.27;9.10;;;11.20;99.90;;;;;;5099601;28;20019;-35
2024/02/04 01:05:07;;;;;;;14.52;9.55;;;11.20;99.90;;;;;;5097533;28;20627;-36
2024/02/04 01:07:33;;;;;;;14.85;10.90;;;11.20;99.90;;;;;;5097345;28;20465;-36
2024/02/04 01:09:58;;;;;;;17.98;11.50;;;11.20;99.90;;;;;;5099312;28;20028;-36
2024/02/04 01:12:24;;;;;;;10.73;9.27;;;11.20;99.90;;;;;;5098027;28;20573;-33
2024/02/04 01:14:49;;;;;;;12.02;8.88;;;11.20;99.90;;;;;;5101584;28;20036;-35
2024/02/04 01:17:15;;;;;;;10.45;7.55;;;11.20;99.90;;;;;;5102066;28;20057;-35
2024/02/04 01:19:40;;;;;;;9.30;7.13;;;11.20;99.90;;;;;;5101746;28;20059;-34
2024/02/04 01:22:06;;;;;;;8.88;6.50;;;11.20;99.90;;;;;;5101442;28;20107;-31
2024/02/04 01:24:32;;;;;;;9.23;6.68;;;11.20;99.90;;;;;;5102626;28;20063;-36
2024/02/04 01:26:57;;;;;;;9.13;6.72;;;11.30;99.90;;;;;;5101233;28;20043;-36
2024/02/04 01:29:23;;;;;;;11.48;7.35;;;11.30;99.90;;;;;;5101454;28;20516;-35
2024/02/04 01:31:48;;;;;;;7.97;6.47;;;11.30;99.90;;;;;;5102093;28;20055;-33
2024/02/04 01:34:14;;;;;;;16.73;9.55;;;11.30;99.90;;;;;;5100442;28;20507;-35
2024/02/04 01:36:39;;;;;;;12.38;7.90;;;11.30;99.90;;;;;;5101699;28;20027;-35
2024/02/04 01:39:05;;;;;;;12.57;9.18;;;11.30;99.90;;;;;;5101739;28;20031;-33
2024/02/04 01:41:31;;;;;;;12.13;8.30;;;11.30;99.90;;;;;;5100842;28;20052;-36
2024/02/04 01:43:56;;;;;;;9.00;7.10;;;11.30;99.90;;;;;;5101299;28;20023;-34
2024/02/04 01:46:22;;;;;;;9.93;6.65;;;11.30;99.90;;;;;;5100471;28;20596;-33
2024/02/04 01:48:48;;;;;;;7.20;5.78;;;11.30;99.90;;;;;;5101348;28;20020;-37
2024/02/04 01:51:15;;;;;;;12.77;6.38;;;11.30;99.90;;;;;;5100898;28;20028;-35
2024/02/04 01:53:44;;;;;;;9.30;5.35;;;11.30;99.90;;;;;;5100430;28;20037;-35
2024/02/04 01:56:11;;;;;;;10.30;6.10;;;11.30;99.90;;;;;;5101607;28;20122;-33
2024/02/04 01:58:36;;;;;;;7.07;5.70;;;11.40;99.90;;;;;;5101370;28;20062;-32
2024/02/04 02:01:02;;;;;;;7.90;5.25;;;11.30;99.90;;;;;;5101140;28;20110;-36
2024/02/04 02:03:31;;;;;;;10.38;5.95;;;11.40;99.90;;;;;;5101318;28;20020;-34
2024/02/04 02:05:58;;;;;;;6.55;5.35;;;11.40;99.90;;;;;;5101384;28;20452;-35
2024/02/04 02:08:24;;;;;;;7.68;5.95;;;11.40;99.90;;;;;;5100117;28;20019;-30
2024/02/04 02:10:56;;;;;;;9.85;6.00;;;11.40;99.90;;;;;;5101454;28;20081;-36
2024/02/04 02:13:30;;;;;;;8.90;5.40;;;11.40;99.90;;;;;;5101165;28;20461;-30
2024/02/04 02:16:04;;;;;;;6.32;5.13;;;11.40;99.90;;;;;;5100340;28;20349;-33
2024/02/04 02:18:39;;;;;;;7.03;4.85;;;11.40;99.90;;;;;;5099870;28;20201;-33
2024/02/04 02:21:37;;;;;;;7.93;5.38;;;11.40;99.90;;;;;;5100823;28;20079;-35
2024/02/04 02:24:21;;;;;;;5.72;4.72;;;11.40;99.90;;;;;;5100827;28;20122;-31
2024/02/04 02:26:49;;;;;;;6.88;4.60;;;11.40;99.90;;;;;;5080116;28;20027;-34
2024/02/04 02:29:15;;;;;;;6.65;4.40;;;11.40;99.90;;;;;;5094196;28;20011;-36
2024/02/04 02:31:41;;;;;;;7.43;4.63;;;11.40;99.90;;;;;;5100482;28;20038;-32
2024/02/04 02:34:08;;;;;;;6.25;4.20;;;11.40;99.90;;;;;;5099367;28;20649;-31
2024/02/04 02:36:42;;;;;;;8.52;5.65;;;11.40;99.90;;;;;;5100028;28;20034;-36
2024/02/04 02:39:27;;;;;;;8.68;5.18;;;11.30;99.90;;;;;;5100353;28;20477;-36
2024/02/04 02:41:57;;;;;;;9.77;5.78;;;11.30;99.90;;;;;;5100314;28;20031;-35
2024/02/04 02:44:25;;;;;;;6.70;4.80;;;11.30;99.90;;;;;;5098847;28;20049;-34
2024/02/04 02:46:51;;;;;;;9.55;6.20;;;11.30;99.90;;;;;;5100728;28;20035;-33
2024/02/04 02:49:17;;;;;;;10.02;6.10;;;11.30;99.90;;;;;;5099739;28;20020;-29
2024/02/04 02:51:42;;;;;;;6.50;5.00;;;11.30;99.90;;;;;;5099477;28;20019;-31
2024/02/04 02:54:08;;;;;;;6.00;4.95;;;11.30;99.90;;;;;;5099007;28;20032;-31
2024/02/04 02:56:34;;;;;;;7.57;4.40;;;11.30;99.90;;;;;;5098635;28;20428;-34
2024/02/04 02:58:59;;;;;;;6.10;4.78;;;11.30;99.90;;;;;;5097774;28;20027;-32
2024/02/04 03:01:25;;;;;;;12.50;6.57;;;11.30;99.90;;;;;;5098066;28;20027;-34
2024/02/04 03:03:50;;;;;;;9.55;6.65;;;11.30;99.90;;;;;;5097536;28;20135;-33
2024/02/04 03:06:16;;;;;;;7.35;5.30;;;11.30;99.90;;;;;;5097659;28;20031;-34
2024/02/04 03:08:41;;;;;;;7.97;5.68;;;11.20;99.90;;;;;;5099924;28;20031;-36
2024/02/04 03:11:07;;;;;;;7.75;6.03;;;11.20;99.90;;;;;;5098548;28;20028;-35
2024/02/04 03:13:32;;;;;;;6.38;5.50;;;11.20;99.90;;;;;;5099583;28;20102;-36
2024/02/04 03:16:01;;;;;;;8.52;5.85;;;11.20;99.90;;;;;;5099150;28;20039;-34
2024/02/04 03:18:26;;;;;;;6.55;5.38;;;11.20;99.90;;;;;;5078352;28;20044;-33
2024/02/04 03:20:55;;;;;;;6.50;5.20;;;11.20;99.90;;;;;;5093343;28;20031;-30
2024/02/04 03:23:20;;;;;;;9.60;7.03;;;11.20;99.90;;;;;;5099278;28;20026;-34
2024/02/04 03:25:46;;;;;;;8.90;6.20;;;11.20;99.90;;;;;;5098616;28;20036;-31
2024/02/04 03:28:11;;;;;;;7.05;5.57;;;11.20;99.90;;;;;;5098570;28;20031;-34
2024/02/04 03:30:37;;;;;;;9.23;5.88;;;11.10;99.90;;;;;;5099395;28;20032;-33
2024/02/04 03:33:03;;;;;;;7.55;5.90;;;11.10;99.90;;;;;;5098458;28;20591;-34
2024/02/04 03:35:28;;;;;;;10.23;7.35;;;11.20;99.90;;;;;;5098904;28;20786;-35
2024/02/04 03:37:54;;;;;;;9.93;6.82;;;11.10;99.90;;;;;;5098910;28;20028;-36
2024/02/04 03:40:22;;;;;;;18.15;9.85;;;11.10;99.90;;;;;;5097988;28;20034;-33
2024/02/04 03:42:48;;;;;;;10.02;8.50;;;11.10;99.90;;;;;;5099271;28;20035;-33
2024/02/04 03:45:14;;;;;;;14.05;8.38;;;11.20;99.90;;;;;;5098265;28;20039;-34
2024/02/04 03:47:39;;;;;;;13.88;10.27;;;11.10;99.90;;;;;;5098932;28;20020;-36
2024/02/04 03:50:05;;;;;;;12.93;9.88;;;11.10;99.90;;;;;;5099500;28;20029;-35
2024/02/04 03:52:31;;;;;;;13.75;9.48;;;11.10;99.90;;;;;;5099398;28;20027;-31
2024/02/04 03:54:59;;;;;;;11.82;8.60;;;11.10;99.90;;;;;;5098916;28;20471;-33
2024/02/04 03:57:24;;;;;;;10.25;7.03;;;11.00;99.90;;;;;;5098709;28;20032;-31
2024/02/04 03:59:50;;;;;;;8.07;6.90;;;11.00;99.90;;;;;;5099331;28;20066;-37
2024/02/04 04:02:15;;;;;;;7.65;6.18;;;11.00;99.90;;;;;;5098090;28;20023;-32
2024/02/04 04:04:47;;;;;;;8.80;5.80;;;11.00;99.90;;;;;;5099578;28;20028;-30
2024/02/04 04:07:13;;;;;;;7.73;5.73;;;11.00;99.90;;;;;;5098655;28;20019;-37
2024/02/04 04:09:38;;;;;;;8.70;5.85;;;11.00;99.90;;;;;;5098886;28;20202;-32
2024/02/04 04:12:04;;;;;;;11.43;6.82;;;11.00;99.90;;;;;;5099339;28;20028;-34
2024/02/04 04:14:29;;;;;;;6.72;5.65;;;10.90;99.90;;;;;;5098949;28;20036;-33
2024/02/04 04:16:55;;;;;;;6.50;5.35;;;10.90;99.90;;;;;;5098862;28;20825;-36
2024/02/04 04:19:20;;;;;;;7.97;5.57;;;10.90;99.90;;;;;;5098551;28;20568;-31
2024/02/04 04:21:46;;;;;;;7.10;4.93;;;10.90;99.90;;;;;;5098253;28;20087;-32
2024/02/04 04:24:12;;;;;;;6.32;4.43;;;10.90;99.90;;;;;;5098690;28;20512;-32
2024/02/04 04:26:37;;;;;;;5.03;4.53;;;10.90;99.90;;;;;;5099443;28;20386;-35
2024/02/04 04:29:03;;;;;;;5.03;3.92;;;10.90;99.90;;;;;;5094048;28;20100;-35
2024/02/04 04:31:28;;;;;;;6.57;3.47;;;10.90;99.90;;;;;;5099203;28;20016;-35
2024/02/04 04:33:54;;;;;;;6.00;4.38;;;10.90;99.90;;;;;;5098612;28;20120;-35
2024/02/04 04:36:20;;;;;;;8.90;5.85;;;10.90;99.90;;;;;;5098488;28;20517;-34
2024/02/04 04:38:45;;;;;;;7.47;5.70;;;10.90;99.90;;;;;;5099493;28;20035;-34
2024/02/04 04:41:11;;;;;;;9.07;5.80;;;10.90;99.90;;;;;;5099466;28;20641;-34
2024/02/04 04:43:38;;;;;;;9.05;6.20;;;10.90;99.90;;;;;;5097769;28;20822;-34
2024/02/04 04:46:03;;;;;;;10.55;5.70;;;10.90;99.90;;;;;;5098531;28;20026;-36
2024/02/04 04:48:29;;;;;;;8.52;5.80;;;10.90;99.90;;;;;;5099085;28;20390;-35
2024/02/04 04:50:55;;;;;;;10.02;5.90;;;10.90;99.90;;;;;;5102306;28;20386;-36
2024/02/04 04:53:20;;;;;;;8.48;5.07;;;10.80;99.90;;;;;;5102577;28;20023;-34
2024/02/04 04:55:46;;;;;;;9.43;6.32;;;10.80;99.90;;;;;;5103446;28;20036;-33
2024/02/04 04:58:14;;;;;;;8.77;5.97;;;10.90;99.90;;;;;;5101605;28;20022;-35
2024/02/04 05:00:40;;;;;;;8.63;5.88;;;10.80;99.90;;;;;;5102723;28;20031;-36
2024/02/04 05:03:05;;;;;;;10.23;7.32;;;10.80;99.90;;;;;;5102418;28;20023;-32
2024/02/04 05:05:31;;;;;;;11.93;6.72;;;10.80;99.90;;;;;;5101294;28;20027;-36
2024/02/04 05:07:56;;;;;;;8.52;6.10;;;10.80;99.90;;;;;;5101923;28;20028;-36
2024/02/04 05:10:22;;;;;;;9.77;6.82;;;10.70;99.90;;;;;;5101059;28;20518;-35
2024/02/04 05:12:47;;;;;;;10.05;5.85;;;10.70;99.90;;;;;;5102628;28;20509;-34
2024/02/04 05:15:13;;;;;;;6.88;5.20;;;10.70;99.90;;;;;;5102500;28;20803;-35
2024/02/04 05:17:39;;;;;;;7.82;4.90;;;10.70;99.90;;;;;;5101823;28;20047;-34
2024/02/04 05:20:05;;;;;;;6.32;4.43;;;10.70;99.90;;;;;;5101687;28;20559;-36
2024/02/04 05:22:31;;;;;;;8.32;4.97;;;10.70;99.90;;;;;;5101588;28;20062;-34
2024/02/04 05:24:56;;;;;;;5.53;4.40;;;10.60;99.90;;;;;;5100969;28;20123;-35
2024/02/04 05:27:22;;;;;;;7.72;5.20;;;10.70;99.90;;;;;;5101340;28;20073;-35
2024/02/04 05:29:48;;;;;;;4.93;4.32;;;10.60;99.90;;;;;;5102079;28;20023;-37
2024/02/04 05:32:13;;;;;;;6.07;4.43;;;10.60;99.90;;;;;;5100880;28;20557;-35
2024/02/04 05:34:39;;;;;;;8.65;4.47;;;10.60;99.90;;;;;;5101338;28;20035;-36
2024/02/04 05:37:04;;;;;;;6.63;5.20;;;10.60;99.90;;;;;;5101552;28;20473;-38
2024/02/04 05:39:30;;;;;;;7.75;4.70;;;10.60;99.90;;;;;;5100634;28;20031;-34
2024/02/04 05:41:55;;;;;;;6.30;4.65;;;10.60;99.90;;;;;;5101729;28;20027;-39
2024/02/04 05:44:21;;;;;;;7.43;4.88;;;10.60;99.90;;;;;;5100802;28;20036;-34
2024/02/04 05:46:46;;;;;;;8.13;4.70;;;10.60;99.90;;;;;;5100668;28;20047;-33
2024/02/04 05:49:12;;;;;;;9.65;4.90;;;10.60;99.90;;;;;;5101240;28;20032;-34
2024/02/04 05:51:42;;;;;;;7.20;4.75;;;10.60;99.90;;;;;;5101711;28;20208;-32
2024/02/04 05:54:08;;;;;;;6.40;4.07;;;10.60;99.90;;;;;;5100293;28;20412;-36
2024/02/04 05:56:34;;;;;;;6.47;4.40;;;10.60;99.90;;;;;;5101336;28;20027;-34
2024/02/04 05:58:59;;;;;;;9.35;4.78;;;10.50;99.90;;;;;;5101047;28;20081;-32
2024/02/04 06:01:25;;;;;;;7.57;5.03;;;10.60;99.90;;;;;;5100065;28;20016;-33
2024/02/04 06:03:51;;;;;;;6.50;4.85;;;10.60;99.90;;;;;;5101438;28;20037;-37
2024/02/04 06:06:19;;;;;;;10.25;4.72;;;10.50;99.90;;;;;;5100280;28;20024;-36
2024/02/04 06:08:48;;;;;;;8.20;4.95;;;10.50;99.90;;;;;;5101508;28;20072;-36
2024/02/04 06:11:14;;;;;;;6.65;4.80;;;10.60;99.90;;;;;;5101580;28;20027;-35
2024/02/04 06:13:44;;;;;;;5.93;4.15;;;10.50;99.90;;;;;;5100964;28;20521;-35
2024/02/04 06:16:12;;;;;;;5.90;4.28;;;10.60;99.90;;;;;;5100892;28;20027;-34
2024/02/04 06:18:38;;;;;;;4.57;3.85;;;10.60;99.90;;;;;;5101251;28;20154;-33
2024/02/04 06:21:07;;;;;;;8.60;4.82;;;10.60;99.90;;;;;;5100231;28;20035;-35
2024/02/04 06:23:33;;;;;;;7.88;5.20;;;10.60;99.90;;;;;;5100691;28;20020;-32
2024/02/04 06:26:00;;;;;;;5.28;4.20;;;10.60;99.90;;;;;;5101110;28;20016;-34
2024/02/04 06:28:25;;;;;;;7.97;4.13;;;10.60;99.90;;;;;;5099999;28;20016;-34
2024/02/04 06:30:54;;;;;;;8.80;5.40;;;10.60;99.90;;;;;;5100949;28;20023;-35
2024/02/04 06:33:19;;;;;;;8.95;5.50;;;10.60;99.90;;;;;;5100976;28;20027;-33
2024/02/04 06:35:45;;;;;;;6.65;4.95;;;10.50;99.90;;;;;;5101265;28;20043;-36
2024/02/04 06:38:11;;;;;;;6.75;5.10;;;10.50;99.90;;;;;;5100419;28;20028;-35
2024/02/04 06:40:36;;;;;;;6.35;4.93;;;10.50;99.90;;;;;;5099650;28;20043;-36
2024/02/04 06:43:02;;;;;;;6.82;4.80;;;10.40;99.90;;;;;;5099836;28;20536;-34
2024/02/04 06:45:27;;;;;;;8.07;5.45;;;10.50;99.90;;;;;;5100519;28;20046;-35
2024/02/04 06:47:53;;;;;;;7.70;6.05;;;10.50;99.90;;;;;;5099960;28;20020;-35
2024/02/04 06:50:24;;;;;;;7.80;6.30;;;10.50;99.90;;;;;;5099452;28;20048;-32
2024/02/04 06:52:50;;;;;;;11.90;8.73;;;10.50;99.90;;;;;;5100178;28;20039;-36
2024/02/04 06:55:16;;;;;;;9.90;8.02;;;10.50;99.90;;;;;;5100141;28;20115;-34
2024/02/04 06:57:41;;;;;;;11.85;8.70;;;10.60;99.90;;;;;;5099930;28;20019;-36
2024/02/04 07:00:11;;;;;;;11.68;9.25;;;10.50;99.90;;;;;;5100306;28;20028;-34
2024/02/04 07:02:37;;;;;;;11.95;9.13;;;10.60;99.90;;;;;;5100442;28;20027;-34
2024/02/04 07:05:05;;;;;;;14.18;12.43;;;10.60;99.90;;;;;;5099947;28;20028;-42
2024/02/04 07:07:31;;;;;;;16.02;13.00;;;10.60;99.90;;;;;;5100357;28;20024;-35
2024/02/04 07:09:59;;;;;;;16.33;12.48;;;10.70;99.90;;;;;;5099855;28;20027;-36
2024/02/04 07:12:28;;;;;;;13.50;11.88;;;10.60;99.90;;;;;;5098609;28;20093;-34
2024/02/04 07:14:54;;;;;;;14.38;12.82;;;10.60;99.90;;;;;;5100356;28;20383;-34
2024/02/04 07:17:20;;;;;;;16.13;12.45;;;10.60;99.90;;;;;;5099241;28;20549;-35
2024/02/04 07:19:46;;;;;;;14.15;11.40;;;10.60;99.90;;;;;;5095970;28;20059;-36
2024/02/04 07:22:11;;;;;;;11.43;9.90;;;10.60;99.90;;;;;;5099465;28;20020;-35
2024/02/04 07:24:37;;;;;;;11.48;9.18;;;10.60;99.90;;;;;;5098658;28;20736;-33
2024/02/04 07:27:02;;;;;;;10.35;8.82;;;10.60;99.90;;;;;;5100018;28;20214;-34
2024/02/04 07:29:28;;;;;;;10.40;9.23;;;10.60;99.90;;;;;;5098938;28;20035;-36
2024/02/04 07:31:53;;;;;;;10.40;8.80;;;10.60;99.90;;;;;;5099179;28;20027;-34
2024/02/04 07:34:19;;;;;;;14.65;10.23;;;10.60;99.90;;;;;;5099001;28;20063;-33
2024/02/04 07:36:45;;;;;;;19.15;11.73;;;10.70;99.90;;;;;;5099778;28;20104;-37
2024/02/04 07:39:11;;;;;;;13.00;9.90;;;10.70;99.90;;;;;;5098886;28;20047;-34
2024/02/04 07:41:36;;;;;;;16.35;10.38;;;10.70;99.90;;;;;;5099131;28;20034;-37
2024/02/04 07:44:02;;;;;;;15.85;9.57;;;10.70;99.90;;;;;;5099196;28;20023;-33
2024/02/04 07:46:27;;;;;;;12.80;9.77;;;10.80;99.90;;;;;;5098527;28;20023;-36
2024/02/04 07:48:53;;;;;;;12.70;9.25;;;10.80;99.90;;;;;;5098831;28;20026;-37
2024/02/04 07:51:20;;;;;;;15.18;10.52;;;10.80;99.90;;;;;;5099199;28;20023;-36
2024/02/04 07:53:45;;;;;;;17.17;9.85;;;10.80;99.90;;;;;;5099118;28;20028;-34
2024/02/04 07:56:11;;;;;;;12.60;8.65;;;10.80;99.90;;;;;;5098832;28;20410;-34
2024/02/04 07:58:36;;;;;;;10.30;7.85;;;10.80;99.90;;;;;;5098830;28;20016;-35
2024/02/04 08:01:05;;;;;;;11.07;8.25;;;10.80;99.90;;;;;;5097914;28;20019;-35
2024/02/04 08:03:30;;;;;;;9.80;7.55;;;10.80;99.90;;;;;;5098632;28;20139;-35
2024/02/04 08:05:56;;;;;;;10.48;7.32;;;10.90;99.90;;;;;;5098700;28;20028;-33
2024/02/04 08:08:21;;;;;;;13.77;7.70;;;10.90;99.90;;;;;;5098298;28;20030;-37
2024/02/04 08:10:47;;;;;;;7.75;6.20;;;10.90;99.90;;;;;;5098502;28;20869;-33
2024/02/04 08:13:13;;;;;;;9.45;6.35;;;10.90;99.90;;;;;;5098269;28;20070;-37
2024/02/04 08:15:39;;;;;;;10.38;6.68;;;10.90;99.90;;;;;;5098210;28;20039;-38
2024/02/04 08:18:05;;;;;;;10.43;6.75;;;10.90;99.90;;;;;;5098465;28;20027;-36
2024/02/04 08:20:30;;;;;;;12.43;7.07;;;10.90;99.90;;;;;;5097253;28;20089;-32
2024/02/04 08:22:56;;;;;;;8.93;6.10;;;10.90;99.90;;;;;;5100526;28;20031;-37
2024/02/04 08:25:21;;;;;;;7.68;5.70;;;10.90;99.90;;;;;;5101830;28;20023;-33
2024/02/04 08:27:47;;;;;;;11.63;7.00;;;10.90;99.90;;;;;;5102797;28;20031;-37
2024/02/04 08:30:13;;;;;;;8.85;5.63;;;11.00;99.90;;;;;;5102721;28;20028;-33
2024/02/04 08:32:39;;;;;;;7.40;5.90;;;10.90;99.90;;;;;;5091698;28;20063;-34
2024/02/04 08:35:05;;;;;;;7.28;5.13;;;11.00;99.90;;;;;;5101491;28;20044;-31
2024/02/04 08:37:32;;;;;;;8.85;5.35;;;11.00;99.90;;;;;;5101795;28;20028;-34
2024/02/04 08:39:57;;;;;;;10.13;5.50;;;11.00;99.90;;;;;;5103208;28;20150;-35
2024/02/04 08:42:23;;;;;;;10.88;5.43;;;11.00;99.90;;;;;;5101076;28;20016;-36
2024/02/04 08:44:49;;;;;;;6.90;4.90;;;11.00;99.90;;;;;;5103230;28;20019;-35
2024/02/04 08:47:16;;;;;;;10.15;5.93;;;11.00;99.90;;;;;;5103043;28;20031;-34
2024/02/04 08:49:43;;;;;;;7.20;4.82;;;11.00;99.90;;;;;;5102654;28;20036;-35
2024/02/04 08:52:08;;;;;;;8.88;4.75;;;10.90;99.90;;;;;;5102622;28;20023;-33
2024/02/04 08:54:34;;;;;;;6.45;4.40;;;10.90;99.90;;;;;;5102278;28;20046;-36
2024/02/04 08:56:59;;;;;;;6.35;4.05;;;10.90;99.90;;;;;;5102169;28;20030;-34
2024/02/04 08:59:25;;;;;;;5.97;4.07;;;10.90;99.90;;;;;;5102301;28;20019;-36
2024/02/04 09:01:50;;;;;;;5.65;4.18;;;10.90;99.90;;;;;;5102001;28;20063;-34
2024/02/04 09:04:16;;;;;;;6.45;3.60;;;11.00;99.90;;;;;;5102135;28;20019;-35
2024/02/04 09:06:42;;;;;;;6.82;3.75;;;11.00;99.90;;;;;;5102705;28;20382;-30
2024/02/04 09:09:09;;;;;;;6.20;3.67;;;10.90;99.90;;;;;;5102777;28;20825;-36
2024/02/04 09:11:34;;;;;;;5.82;3.47;;;11.00;99.90;;;;;;5101272;28;20022;-35
2024/02/04 09:14:00;;;;;;;6.70;3.80;;;10.90;99.90;;;;;;5102083;28;20027;-34
2024/02/04 09:16:25;;;;;;;6.03;3.58;;;10.90;99.90;;;;;;5102016;28;20024;-36
2024/02/04 09:18:57;;;;;;;5.10;3.40;;;10.90;99.90;;;;;;5101317;28;20587;-32
2024/02/04 09:21:23;;;;;;;5.80;4.18;;;11.00;99.90;;;;;;5101193;28;20046;-31
2024/02/04 09:23:48;;;;;;;5.45;4.40;;;11.00;99.90;;;;;;5101357;28;20367;-32
2024/02/04 09:26:14;;;;;;;5.57;4.97;;;11.00;99.90;;;;;;5102037;28;20085;-31
2024/02/04 09:28:40;;;;;;;7.53;5.07;;;11.00;99.90;;;;;;5101568;28;20059;-35
2024/02/04 09:31:08;;;;;;;6.65;5.20;;;11.00;99.90;;;;;;5101097;28;20028;-33
2024/02/04 09:33:35;;;;;;;9.27;5.30;;;11.00;99.90;;;;;;5101234;28;20285;-34
2024/02/04 09:36:04;;;;;;;7.43;5.95;;;11.00;99.90;;;;;;5100458;28;20039;-34
2024/02/04 09:38:29;;;;;;;7.90;5.85;;;11.00;99.90;;;;;;5100337;28;20020;-36
2024/02/04 09:40:55;;;;;;;10.50;6.35;;;11.10;99.90;;;;;;5101259;28;20127;-35
2024/02/04 09:43:21;;;;;;;9.93;5.82;;;11.10;99.90;;;;;;5100991;28;20061;-37
2024/02/04 09:45:49;;;;;;;8.35;5.72;;;11.10;99.90;;;;;;5100950;28;20451;-34
2024/02/04 09:48:20;;;;;;;8.93;6.07;;;11.20;99.90;;;;;;5100706;28;20098;-36
2024/02/04 09:50:46;;;;;;;6.32;5.25;;;11.20;99.90;;;;;;5100854;28;20067;-32
2024/02/04 09:53:14;;;;;;;5.53;4.55;;;11.20;99.90;;;;;;5100045;28;20131;-31
2024/02/04 09:55:41;;;;;;;6.82;4.65;;;11.20;99.90;;;;;;5101230;28;20043;-36
2024/02/04 09:58:10;;;;;;;8.07;4.55;;;11.20;99.90;;;;;;5100677;28;20023;-35
2024/02/04 10:00:38;;;;;;;5.93;4.10;;;11.30;99.90;;;;;;5088667;28;20462;-35
2024/02/04 10:03:04;;;;;;;6.35;4.25;;;11.30;99.90;;;;;;5099692;28;20651;-34
2024/02/04 10:05:29;;;;;;;8.85;4.55;;;11.40;99.90;;;;;;5100855;28;20046;-35
2024/02/04 10:07:55;;;;;;;4.72;3.88;;;11.50;99.90;;;;;;5100321;28;20031;-35
2024/02/04 10:10:21;;;;;;;5.20;3.55;;;11.50;99.90;;;;;;5100188;28;20012;-35
2024/02/04 10:12:49;;;;;;;5.28;3.50;;;11.50;99.90;;;;;;5100467;28;20023;-35
2024/02/04 10:15:16;;;;;;;5.65;3.45;;;11.60;99.90;;;;;;5100097;28;20039;-37
2024/02/04 10:17:47;;;;;;;5.82;3.30;;;11.60;99.90;;;;;;5100322;28;20035;-36
2024/02/04 10:20:13;;;;;;;4.35;2.70;;;11.60;99.90;;;;;;5098783;28;20066;-34
2024/02/04 10:22:39;;;;;;;7.78;4.38;;;11.70;99.90;;;;;;5100430;28;20027;-36
2024/02/04 10:25:09;;;;;;;5.85;2.92;;;11.70;99.90;;;;;;5100300;28;20588;-33
2024/02/04 10:27:35;;;;;;;5.22;3.13;;;11.70;99.90;;;;;;5099308;28;20749;-35
2024/02/04 10:30:01;;;;;;;3.70;2.50;;;11.80;99.90;;;;;;5099973;28;20015;-33
2024/02/04 10:32:26;;;;;;;4.60;2.67;;;11.80;99.90;;;;;;5100452;28;20815;-37
2024/02/04 10:34:52;;;;;;;5.07;3.10;;;11.80;99.90;;;;;;5099446;28;20042;-36
2024/02/04 10:37:17;;;;;;;4.10;2.58;;;11.80;99.90;;;;;;5100633;28;20043;-36
2024/02/04 10:39:43;;;;;;;3.15;2.40;;;11.80;99.90;;;;;;5100377;28;20019;-32
2024/02/04 10:42:12;;;;;;;3.88;2.20;;;11.90;99.90;;;;;;5099815;28;20396;-30
2024/02/04 10:44:42;;;;;;;4.10;2.40;;;11.90;99.90;;;;;;5100064;28;20763;-37
2024/02/04 10:47:13;;;;;;;2.72;2.00;;;12.00;99.90;;;;;;5087884;28;20070;-32
2024/02/04 10:49:46;;;;;;;4.25;1.67;;;12.00;99.90;;;;;;5099046;28;20116;-35
2024/02/04 10:52:13;;;;;;;2.63;1.80;;;12.00;99.90;;;;;;5099803;28;20039;-33
2024/02/04 10:54:41;;;;;;;3.10;1.88;;;12.10;99.90;;;;;;5099837;28;20035;-36
2024/02/04 10:57:12;;;;;;;1.83;1.42;;;12.10;99.90;;;;;;5099286;28;20538;-33
2024/02/04 10:59:38;;;;;;;3.58;1.83;;;12.10;99.90;;;;;;5100052;28;20116;-33
2024/02/04 11:02:05;;;;;;;3.08;1.75;;;12.10;99.90;;;;;;5100122;28;20671;-35
2024/02/04 11:04:33;;;;;;;2.42;1.38;;;12.20;99.90;;;;;;5100227;28;20128;-35
2024/02/04 11:07:22;;;;;;;4.07;1.10;;;12.20;99.90;;;;;;5056334;28;20477;-34
2024/02/04 11:09:49;;;;;;;1.77;1.40;;;12.20;99.90;;;;;;5056180;28;20569;-34
2024/02/04 11:12:17;;;;;;;4.00;1.27;;;12.30;99.90;;;;;;5055739;28;20029;-35
2024/02/04 11:14:47;;;;;;;2.70;1.00;;;12.20;99.90;;;;;;5056498;28;20130;-35
2024/02/04 11:17:50;;;;;;;3.20;1.08;;;12.20;99.90;;;;;;5055201;28;20033;-36
2024/02/04 11:20:48;;;;;;;3.15;1.10;;;12.20;99.90;;;;;;5055742;28;20043;-35
2024/02/04 11:23:40;;;;;;;2.13;0.90;;;12.10;99.90;;;;;;5041952;28;20090;-34
2024/02/04 11:26:06;;;;;;;2.88;1.23;;;12.00;99.90;;;;;;5054042;28;20456;-35
2024/02/04 11:28:33;;;;;;;1.52;1.00;;;11.90;99.90;;;;;;5055673;28;20035;-37
2024/02/04 11:30:58;;;;;;;1.48;0.70;;;11.80;99.90;;;;;;5055286;28;20025;-32
2024/02/04 11:33:24;;;;;;;0.70;0.50;;;11.80;99.90;;;;;;5055623;28;20025;-31
2024/02/04 11:36:00;;;;;;;0.60;0.60;;;11.70;99.90;;;;;;5055838;28;20048;-37
2024/02/04 11:38:31;;;;;;;0.73;0.50;;;11.70;99.90;;;;;;5055129;28;20025;-34
2024/02/04 11:40:57;;;;;;;0.93;0.50;;;11.60;99.90;;;;;;5055165;28;20061;-31
2024/02/04 11:43:23;;;;;;;0.85;0.50;;;11.60;99.90;;;;;;5055420;28;20029;-37
2024/02/04 11:45:53;;;;;;;0.80;0.60;;;11.60;99.90;;;;;;5054809;28;20044;-33
2024/02/04 11:48:20;;;;;;;0.90;0.38;;;11.60;99.90;;;;;;5054695;28;20064;-36
2024/02/04 11:50:52;;;;;;;0.55;0.40;;;11.60;99.90;;;;;;5055501;28;20062;-34
2024/02/04 11:53:18;;;;;;;0.52;0.50;;;11.60;99.90;;;;;;5054836;28;20017;-36
2024/02/04 11:55:45;;;;;;;0.40;0.40;;;11.60;99.90;;;;;;5056015;28;20490;-35
2024/02/04 11:58:11;;;;;;;0.70;0.60;;;11.60;99.90;;;;;;5055458;28;20028;-34
2024/02/04 12:00:37;;;;;;;0.82;0.82;;;11.60;99.90;;;;;;5054813;28;20042;-36
2024/02/04 12:03:07;;;;;;;0.75;0.75;;;11.50;99.90;;;;;;5055278;28;20396;-34
2024/02/04 12:05:35;;;;;;;1.20;1.10;;;11.60;99.90;;;;;;5054377;28;20215;-35
2024/02/04 12:08:05;;;;;;;1.10;1.00;;;11.60;99.90;;;;;;5055168;28;20028;-35
2024/02/04 12:10:33;;;;;;;1.40;1.30;;;11.60;99.90;;;;;;5055231;28;20029;-33
2024/02/04 12:13:01;;;;;;;1.58;1.48;;;11.60;99.90;;;;;;5054361;28;20025;-34
2024/02/04 12:15:28;;;;;;;1.88;1.70;;;11.60;99.90;;;;;;5055062;28;20109;-33
2024/02/04 12:17:53;;;;;;;1.90;1.80;;;11.50;99.90;;;;;;5044704;28;20028;-36
2024/02/04 12:20:19;;;;;;;2.17;1.98;;;11.50;99.90;;;;;;5041139;28;20040;-34
2024/02/04 12:22:45;;;;;;;5.82;2.65;;;11.50;99.90;;;;;;5042056;28;20826;-35
2024/02/04 12:25:10;;;;;;;3.33;2.53;;;11.50;99.90;;;;;;5042144;28;20029;-34
2024/02/04 12:27:36;;;;;;;2.55;2.17;;;11.50;99.90;;;;;;5040898;28;20480;-36
2024/02/04 12:30:02;;;;;;;3.15;2.72;;;11.50;99.90;;;;;;5042097;28;20029;-36
2024/02/04 12:32:28;;;;;;;4.68;2.97;;;11.50;99.90;;;;;;5041999;28;20035;-37
2024/02/04 12:34:56;;;;;;;4.28;2.78;;;11.50;99.90;;;;;;5040700;28;20090;-35
2024/02/04 12:37:26;;;;;;;4.43;3.40;;;11.50;99.90;;;;;;5041962;28;20091;-36
2024/02/04 12:39:52;;;;;;;6.78;3.47;;;11.60;99.90;;;;;;5041615;28;20020;-36
2024/02/04 12:42:19;;;;;;;6.00;3.45;;;11.50;99.90;;;;;;5020864;28;20036;-34